Time;durP1;ratioP1;P1;durP2;ratioP2;P2;SDS_P1;SDS_P2;PMS_P1;PMS_P2;Temp;Humidity;BMP_temperature;BMP_pressure;BME280_temperature;BME280_humidity;BME280_pressure;Samples;Min_cycle;Max_cycle;Signal;HPM_P1;HPM_P2
2023/09/02 00:01:33;;;;;;;;;12.67;11.00;;;;;21.19;74.52;101285.81;5076330;27;68292;-45
2023/09/02 00:04:01;;;;;;;;;12.50;9.75;;;;;21.18;74.54;101275.97;5079963;27;70949;-48
2023/09/02 00:06:27;;;;;;;;;15.33;11.00;;;;;21.18;75.21;101277.84;5091549;27;45612;-46
2023/09/02 00:08:52;;;;;;;;;10.67;10.67;;;;;21.14;75.00;101277.25;5094222;27;62892;-46
2023/09/02 00:11:17;;;;;;;;;10.67;10.67;;;;;21.13;74.82;101280.94;5089317;27;45733;-46
2023/09/02 00:13:42;;;;;;;;;12.33;10.00;;;;;21.13;74.92;101278.22;5084824;27;71816;-46
2023/09/02 00:16:08;;;;;;;;;11.33;11.33;;;;;21.13;74.73;101283.63;5090659;27;71795;-48
2023/09/02 00:18:33;;;;;;;;;14.33;11.00;;;;;21.14;74.22;101275.38;5086978;27;45799;-46
2023/09/02 00:20:58;;;;;;;;;10.00;10.00;;;;;21.15;74.47;101279.81;5095897;27;50822;-47
2023/09/02 00:23:24;;;;;;;;;11.00;11.00;;;;;21.16;74.41;101280.69;5090014;27;75386;-49
2023/09/02 00:25:49;;;;;;;;;12.33;12.33;;;;;21.17;74.77;101281.53;5088317;27;69230;-46
2023/09/02 00:28:14;;;;;;;;;11.00;11.00;;;;;21.16;74.83;101277.97;5092540;27;66815;-48
2023/09/02 00:30:40;;;;;;;;;12.00;11.00;;;;;21.14;74.83;101277.25;5090164;27;66114;-46
2023/09/02 00:33:05;;;;;;;;;16.00;13.67;;;;;21.14;75.43;101279.94;5081643;27;73648;-48
2023/09/02 00:35:31;;;;;;;;;12.67;11.00;;;;;21.12;75.22;101277.38;5079356;27;45615;-46
2023/09/02 00:37:56;;;;;;;;;9.33;9.33;;;;;21.09;75.33;101283.06;5078661;27;59500;-46
2023/09/02 00:40:23;;;;;;;;;12.33;12.33;;;;;21.04;75.69;101279.91;5080112;27;70501;-45
2023/09/02 00:42:49;;;;;;;;;9.00;9.00;;;;;20.98;75.11;101283.13;5095208;27;73948;-46
2023/09/02 00:45:15;;;;;;;;;13.67;11.33;;;;;20.92;75.38;101278.25;5062025;27;72262;-45
2023/09/02 00:47:41;;;;;;;;;14.00;14.00;;;;;20.85;75.89;101283.34;5059200;28;45454;-46
2023/09/02 00:50:07;;;;;;;;;11.00;11.00;;;;;20.78;75.62;101282.13;5086663;27;45959;-46
2023/09/02 00:52:33;;;;;;;;;13.00;12.00;;;;;20.71;76.18;101287.22;5097571;27;45551;-47
2023/09/02 00:54:59;;;;;;;;;12.00;11.33;;;;;20.64;76.33;101286.84;5093918;27;45419;-46
2023/09/02 00:57:25;;;;;;;;;15.67;15.00;;;;;20.60;76.24;101287.25;5094501;27;45422;-48
2023/09/02 00:59:50;;;;;;;;;18.00;13.33;;;;;20.54;77.21;101288.63;5088937;27;60468;-46
2023/09/02 01:02:16;;;;;;;;;14.33;12.00;;;;;20.50;77.46;101287.16;5073037;27;73262;-47
2023/09/02 01:04:42;;;;;;;;;12.67;11.00;;;;;20.47;77.48;101287.44;5065158;27;61616;-47
2023/09/02 01:07:07;;;;;;;;;19.00;15.00;;;;;20.42;77.85;101285.13;5086292;27;45534;-49
2023/09/02 01:09:33;;;;;;;;;11.00;10.67;;;;;20.38;77.88;101291.75;5064720;27;69055;-49
2023/09/02 01:11:58;;;;;;;;;13.67;13.67;;;;;20.35;78.13;101281.22;5078868;27;71206;-46
2023/09/02 01:14:23;;;;;;;;;12.33;12.33;;;;;20.31;78.32;101282.44;5091937;27;67971;-49
2023/09/02 01:16:49;;;;;;;;;16.00;13.00;;;;;20.27;78.39;101276.47;5088942;27;66202;-49
2023/09/02 01:19:16;;;;;;;;;11.33;11.33;;;;;20.23;78.63;101274.13;5087011;27;65212;-48
2023/09/02 01:22:10;;;;;;;;;14.33;14.33;;;;;20.20;78.40;101277.94;5078305;27;46289;-49
2023/09/02 01:24:54;;;;;;;;;12.33;12.00;;;;;20.14;78.57;101271.22;5069417;27;45480;-46
2023/09/02 01:27:28;;;;;;;;;12.00;11.00;;;;;20.12;79.03;101272.34;5072156;28;45471;-46
2023/09/02 01:30:00;;;;;;;;;12.00;12.00;;;;;20.08;79.01;101276.28;5075563;27;45611;-46
2023/09/02 01:32:32;;;;;;;;;10.67;9.00;;;;;20.02;79.45;101268.69;5066303;27;46108;-48
2023/09/02 01:34:58;;;;;;;;;13.33;12.67;;;;;19.98;79.11;101282.41;5074285;27;45966;-46
2023/09/02 01:37:24;;;;;;;;;7.33;6.67;;;;;19.97;79.56;101287.97;5083057;27;45585;-47
2023/09/02 01:39:52;;;;;;;;;11.00;11.00;;;;;19.95;79.99;101284.53;5078277;27;68929;-45
2023/09/02 01:42:18;;;;;;;;;13.00;11.33;;;;;19.94;79.54;101288.22;5081929;27;46308;-45
2023/09/02 01:44:44;;;;;;;;;11.33;10.33;;;;;19.91;80.33;101278.53;5078440;27;45388;-47
2023/09/02 01:47:10;;;;;;;;;9.00;9.00;;;;;19.90;79.88;101276.81;5088851;27;67902;-47
2023/09/02 01:49:37;;;;;;;;;16.00;12.00;;;;;19.86;80.19;101269.94;5077770;27;45595;-44
2023/09/02 01:52:02;;;;;;;;;14.67;11.33;;;;;19.83;80.02;101268.38;5079373;27;73848;-45
2023/09/02 01:54:27;;;;;;;;;10.67;10.67;;;;;19.82;80.21;101272.03;5072569;27;45458;-44
2023/09/02 01:56:54;;;;;;;;;11.00;11.00;;;;;19.79;80.71;101277.66;5084992;27;68873;-45
2023/09/02 01:59:19;;;;;;;;;11.00;11.00;;;;;19.77;80.58;101281.47;5067142;27;45503;-50
2023/09/02 02:01:44;;;;;;;;;10.67;10.33;;;;;19.74;80.84;101273.63;5090376;27;59030;-50
2023/09/02 02:04:32;;;;;;;;;12.67;12.67;;;;;19.71;81.29;101263.94;5089652;27;69620;-47
2023/09/02 02:07:00;;;;;;;;;10.33;10.00;;;;;19.70;80.78;101264.06;5081137;27;45662;-45
2023/09/02 02:09:48;;;;;;;;;10.00;8.00;;;;;19.69;80.75;101259.66;5069555;27;45644;-46
2023/09/02 02:12:14;;;;;;;;;14.33;11.33;;;;;19.68;80.93;101258.78;5074482;27;45563;-46
2023/09/02 02:14:39;;;;;;;;;9.00;9.00;;;;;19.64;81.04;101255.47;5078602;27;70529;-47
2023/09/02 02:17:06;;;;;;;;;11.00;11.00;;;;;19.63;81.74;101255.59;5074102;27;62703;-47
2023/09/02 02:19:32;;;;;;;;;10.33;9.67;;;;;19.61;81.24;101250.34;5099179;27;45466;-46
2023/09/02 02:21:58;;;;;;;;;10.33;10.33;;;;;19.61;81.96;101249.50;5078365;27;46175;-48
2023/09/02 02:24:24;;;;;;;;;10.00;10.00;;;;;19.58;81.36;101250.59;5081310;27;45365;-49
2023/09/02 02:26:49;;;;;;;;;12.67;10.00;;;;;19.56;82.00;101247.16;5098980;27;45553;-45
2023/09/02 02:29:15;;;;;;;;;10.67;8.00;;;;;19.57;81.59;101256.09;5089955;27;70532;-46
2023/09/02 02:31:40;;;;;;;;;11.33;10.00;;;;;19.54;82.23;101254.50;5077071;27;73689;-46
2023/09/02 02:34:05;;;;;;;;;11.00;9.00;;;;;19.51;82.08;101254.75;5090199;27;45486;-47
2023/09/02 02:36:30;;;;;;;;;10.67;9.67;;;;;19.49;83.15;101252.19;5086263;27;68103;-50
2023/09/02 02:38:56;;;;;;;;;9.33;7.33;;;;;19.47;82.25;101256.84;5084767;27;67921;-49
2023/09/02 02:41:21;;;;;;;;;9.00;9.00;;;;;19.45;82.25;101266.03;5082311;27;68379;-47
2023/09/02 02:43:46;;;;;;;;;10.00;10.00;;;;;19.42;82.29;101256.34;5098779;27;67469;-45
2023/09/02 02:46:12;;;;;;;;;9.25;9.25;;;;;19.44;82.24;101253.56;5089440;27;45432;-44
2023/09/02 02:48:37;;;;;;;;;7.00;7.00;;;;;19.43;82.70;101252.69;5082892;27;70220;-49
2023/09/02 02:51:02;;;;;;;;;5.67;5.67;;;;;19.42;82.22;101256.34;5082292;27;47946;-45
2023/09/02 02:53:28;;;;;;;;;9.00;8.00;;;;;19.40;82.60;101274.50;5090910;27;45672;-46
2023/09/02 02:55:53;;;;;;;;;9.00;7.67;;;;;19.39;82.89;101270.09;5090844;27;63736;-45
2023/09/02 02:58:19;;;;;;;;;9.00;9.00;;;;;19.38;83.47;101273.75;5098490;27;45450;-46
2023/09/02 03:00:46;;;;;;;;;8.67;7.67;;;;;19.37;83.36;101280.13;5067257;27;45963;-46
2023/09/02 03:03:12;;;;;;;;;7.75;7.00;;;;;19.38;82.95;101264.81;5085758;27;45799;-45
2023/09/02 03:05:38;;;;;;;;;6.33;5.00;;;;;19.38;83.31;101271.06;5092326;27;45379;-46
2023/09/02 03:08:07;;;;;;;;;5.67;5.67;;;;;19.37;82.85;101274.75;5099369;27;45418;-46
2023/09/02 03:10:36;;;;;;;;;4.25;4.25;;;;;19.38;82.78;101281.84;5089667;27;46243;-45
2023/09/02 03:13:02;;;;;;;;;7.00;7.00;;;;;19.38;82.76;101283.72;5096030;27;45283;-46
2023/09/02 03:15:28;;;;;;;;;8.00;8.00;;;;;19.39;82.96;101288.13;5092023;27;45436;-45
2023/09/02 03:17:53;;;;;;;;;10.00;8.00;;;;;19.36;82.98;101291.06;5092727;27;45627;-45
2023/09/02 03:20:18;;;;;;;;;9.00;7.00;;;;;19.34;82.99;101285.78;5086305;27;62473;-47
2023/09/02 03:22:44;;;;;;;;;6.33;6.33;;;;;19.32;83.02;101288.59;5091187;27;45660;-46
2023/09/02 03:25:09;;;;;;;;;8.00;7.00;;;;;19.33;83.68;101292.16;5090950;27;45683;-45
2023/09/02 03:27:38;;;;;;;;;9.33;6.67;;;;;19.33;83.58;101294.84;5085155;27;45520;-46
2023/09/02 03:30:05;;;;;;;;;5.67;5.67;;;;;19.33;83.27;101294.84;5084023;27;46199;-47
2023/09/02 03:32:31;;;;;;;;;9.33;6.33;;;;;19.32;83.29;101291.31;5085369;27;45679;-45
2023/09/02 03:34:56;;;;;;;;;2.67;2.67;;;;;19.32;83.03;101307.50;5079779;27;45410;-45
2023/09/02 03:37:21;;;;;;;;;7.75;6.00;;;;;19.30;83.69;101312.13;5089123;27;45485;-48
2023/09/02 03:39:47;;;;;;;;;6.33;6.00;;;;;19.30;83.24;101309.44;5077666;27;46340;-48
2023/09/02 03:42:13;;;;;;;;;6.00;6.00;;;;;19.31;83.72;101315.72;5080910;27;45449;-46
2023/09/02 03:44:38;;;;;;;;;6.25;6.25;;;;;19.29;83.67;101321.19;5077359;27;51572;-47
2023/09/02 03:47:04;;;;;;;;;6.25;6.00;;;;;19.27;83.41;101320.47;5060420;28;69878;-47
2023/09/02 03:49:29;;;;;;;;;7.33;6.67;;;;;19.26;83.62;101315.22;5077966;27;74353;-45
2023/09/02 03:51:54;;;;;;;;;5.67;5.67;;;;;19.26;83.93;101315.22;5088752;27;45319;-48
2023/09/02 03:54:20;;;;;;;;;5.00;5.00;;;;;19.22;83.76;101314.59;5080484;27;67728;-46
2023/09/02 03:56:45;;;;;;;;;6.33;5.67;;;;;19.19;83.69;101322.94;5078311;28;45372;-45
2023/09/02 03:59:11;;;;;;;;;6.00;5.00;;;;;19.17;83.65;101314.09;5078929;27;46082;-45
2023/09/02 04:01:36;;;;;;;;;6.00;6.00;;;;;19.15;84.07;101314.22;5083913;27;65579;-46
2023/09/02 04:04:02;;;;;;;;;7.67;7.00;;;;;19.14;84.52;101295.47;5078926;27;64864;-45
2023/09/02 04:06:27;;;;;;;;;8.00;6.33;;;;;19.11;84.31;101301.97;5086311;27;45515;-46
2023/09/02 04:08:52;;;;;;;;;5.00;5.00;;;;;19.09;84.57;101292.28;5081302;27;46084;-44
2023/09/02 04:11:18;;;;;;;;;6.67;4.67;;;;;19.05;84.78;101280.88;5082088;27;50876;-46
2023/09/02 04:13:43;;;;;;;;;6.00;5.00;;;;;19.04;84.21;101284.53;5077674;27;69132;-45
2023/09/02 04:16:10;;;;;;;;;5.00;5.00;;;;;19.02;84.80;101291.91;5077246;27;64181;-44
2023/09/02 04:18:36;;;;;;;;;6.67;4.33;;;;;19.01;84.16;101292.88;5092889;27;46096;-46
2023/09/02 04:21:03;;;;;;;;;6.00;4.00;;;;;18.99;84.18;101290.31;5085740;27;45498;-46
2023/09/02 04:23:29;;;;;;;;;9.67;8.00;;;;;18.99;84.26;101286.72;5090931;27;45516;-46
2023/09/02 04:25:56;;;;;;;;;6.33;5.00;;;;;18.97;84.02;101296.78;5073989;27;45461;-44
2023/09/02 04:28:22;;;;;;;;;9.00;6.00;;;;;18.95;84.22;101294.19;5086241;27;46240;-48
2023/09/02 04:30:48;;;;;;;;;8.00;5.00;;;;;18.93;84.06;101298.84;5085591;27;45512;-45
2023/09/02 04:33:14;;;;;;;;;6.33;5.00;;;;;18.91;84.00;101305.34;5096513;27;45695;-44
2023/09/02 04:35:42;;;;;;;;;9.50;4.25;;;;;18.89;84.20;101309.94;5096284;27;45430;-46
2023/09/02 04:38:07;;;;;;;;;8.67;5.00;;;;;18.88;84.39;101310.91;5094721;27;45517;-45
2023/09/02 04:40:50;;;;;;;;;8.67;6.33;;;;;18.85;84.49;101312.00;5093531;27;73045;-50
2023/09/02 04:43:16;;;;;;;;;6.67;5.00;;;;;18.84;84.75;101319.25;5091307;27;54344;-49
2023/09/02 04:45:42;;;;;;;;;7.00;4.00;;;;;18.82;84.88;101323.03;5089155;27;45624;-47
2023/09/02 04:48:08;;;;;;;;;5.00;5.00;;;;;18.80;85.07;101317.78;5083284;27;46296;-46
2023/09/02 04:50:34;;;;;;;;;4.00;4.00;;;;;18.80;84.96;101311.53;5068471;27;45552;-48
2023/09/02 04:53:00;;;;;;;;;4.00;4.00;;;;;18.78;84.66;101308.09;5093329;27;45663;-45
2023/09/02 04:55:26;;;;;;;;;4.75;3.00;;;;;18.75;84.67;101311.88;5097436;27;45362;-47
2023/09/02 04:57:52;;;;;;;;;3.33;3.33;;;;;18.74;84.69;101310.16;5085200;27;46190;-47
2023/09/02 05:00:18;;;;;;;;;4.75;4.75;;;;;18.73;84.90;101310.28;5088923;27;45440;-46
2023/09/02 05:02:44;;;;;;;;;7.00;4.00;;;;;18.73;84.68;101307.56;5090176;27;45471;-46
2023/09/02 05:05:10;;;;;;;;;4.25;4.25;;;;;18.72;84.42;101300.47;5082581;27;45422;-48
2023/09/02 05:07:35;;;;;;;;;4.33;4.00;;;;;18.73;85.16;101304.88;5096638;27;46222;-47
2023/09/02 05:10:01;;;;;;;;;3.75;3.00;;;;;18.73;85.06;101305.72;5086609;27;45436;-46
2023/09/02 05:12:27;;;;;;;;;4.00;4.00;;;;;18.75;84.87;101314.56;5088850;27;50830;-46
2023/09/02 05:14:52;;;;;;;;;4.00;4.00;;;;;18.76;84.38;101315.41;5080782;28;45497;-46
2023/09/02 05:17:17;;;;;;;;;3.75;3.75;;;;;18.74;84.89;101323.63;5066832;28;46030;-47
2023/09/02 05:19:43;;;;;;;;;3.25;3.25;;;;;18.73;84.96;101337.22;5081962;27;67850;-44
2023/09/02 05:22:09;;;;;;;;;5.00;3.00;;;;;18.71;84.90;101337.34;5087733;27;61758;-47
2023/09/02 05:24:34;;;;;;;;;4.00;4.00;;;;;18.72;84.79;101339.06;5096710;27;45528;-44
2023/09/02 05:27:00;;;;;;;;;5.33;4.00;;;;;18.74;84.72;101344.31;5093537;27;45386;-46
2023/09/02 05:29:25;;;;;;;;;2.25;2.25;;;;;18.74;85.07;101336.25;5082993;27;53593;-46
2023/09/02 05:31:50;;;;;;;;;7.00;4.00;;;;;18.74;84.90;101342.47;5090278;27;45485;-46
2023/09/02 05:34:16;;;;;;;;;3.25;3.25;;;;;18.75;85.10;101337.97;5097122;27;71604;-46
2023/09/02 05:36:41;;;;;;;;;3.00;3.00;;;;;18.75;84.10;101343.38;5086040;27;62136;-46
2023/09/02 05:39:07;;;;;;;;;4.50;4.00;;;;;18.77;84.81;101352.16;5086195;27;72644;-46
2023/09/02 05:41:32;;;;;;;;;5.00;3.00;;;;;18.78;84.72;101353.91;5086517;27;45427;-46
2023/09/02 05:43:58;;;;;;;;;4.25;3.00;;;;;18.83;84.28;101357.09;5091910;27;64347;-46
2023/09/02 05:46:23;;;;;;;;;4.00;4.00;;;;;18.88;84.11;101359.41;5084180;27;46121;-47
2023/09/02 05:48:48;;;;;;;;;4.67;3.00;;;;;18.93;84.03;101357.28;5094532;27;45421;-45
2023/09/02 05:51:14;;;;;;;;;3.75;3.25;;;;;18.97;83.98;101356.94;5069137;27;48709;-46
2023/09/02 05:53:39;;;;;;;;;2.25;2.25;;;;;19.06;83.85;101357.19;5091719;27;67070;-46
2023/09/02 05:56:04;;;;;;;;;4.25;3.25;;;;;19.14;83.96;101366.41;5074195;27;46993;-45
2023/09/02 05:58:30;;;;;;;;;2.75;2.75;;;;;19.20;83.74;101367.75;5060861;28;45370;-48
2023/09/02 06:00:58;;;;;;;;;2.00;2.00;;;;;19.28;83.33;101364.47;5090530;27;46854;-45
2023/09/02 06:03:24;;;;;;;;;3.00;3.00;;;;;19.36;82.61;101363.88;5097618;27;45407;-47
2023/09/02 06:05:49;;;;;;;;;2.67;2.67;;;;;19.41;82.72;101367.94;5089668;27;67933;-46
2023/09/02 06:08:15;;;;;;;;;3.00;3.00;;;;;19.48;82.23;101368.31;5086310;27;45809;-46
2023/09/02 06:10:40;;;;;;;;;5.00;3.33;;;;;19.55;82.12;101369.53;5086659;27;45485;-48
2023/09/02 06:13:06;;;;;;;;;3.75;2.75;;;;;19.63;81.83;101367.09;5062661;27;66321;-45
2023/09/02 06:15:31;;;;;;;;;3.25;3.25;;;;;19.78;81.45;101358.75;5099460;27;46540;-47
2023/09/02 06:17:56;;;;;;;;;5.00;3.00;;;;;19.92;80.72;101361.22;5092579;27;69789;-46
2023/09/02 06:20:22;;;;;;;;;4.67;3.00;;;;;20.08;80.41;101368.09;5080779;27;45576;-45
2023/09/02 06:22:48;;;;;;;;;4.33;4.00;;;;;20.23;80.22;101365.97;5082920;27;45861;-44
2023/09/02 06:25:13;;;;;;;;;3.33;3.33;;;;;20.34;79.61;101371.34;5078585;27;45441;-45
2023/09/02 06:27:38;;;;;;;;;6.00;4.00;;;;;20.43;79.08;101378.69;5092545;27;45381;-47
2023/09/02 06:30:04;;;;;;;;;5.00;3.33;;;;;20.51;78.33;101383.47;5088670;27;64333;-46
2023/09/02 06:32:30;;;;;;;;;3.00;3.00;;;;;20.61;78.15;101381.72;5092428;27;45616;-46
2023/09/02 06:34:55;;;;;;;;;4.00;3.00;;;;;20.75;77.97;101391.38;5089927;27;45894;-47
2023/09/02 06:37:21;;;;;;;;;5.00;5.00;;;;;20.90;77.22;101396.47;5086577;27;45542;-45
2023/09/02 06:39:46;;;;;;;;;5.00;4.00;;;;;21.26;76.79;101406.03;5092294;27;45427;-46
2023/09/02 06:42:12;;;;;;;;;4.50;3.00;;;;;22.54;75.84;101407.47;5070737;28;68310;-45
2023/09/02 06:44:37;;;;;;;;;5.33;4.33;;;;;24.42;73.09;101394.16;5091475;27;72262;-47
2023/09/02 06:47:03;;;;;;;;;3.00;3.00;;;;;26.47;67.57;101395.72;5078758;28;62587;-46
2023/09/02 06:49:32;;;;;;;;;4.75;4.50;;;;;28.53;61.96;101403.53;5092847;27;45506;-45
2023/09/02 06:51:57;;;;;;;;;4.50;3.50;;;;;30.16;57.72;101397.75;5093350;27;45372;-45
2023/09/02 06:54:22;;;;;;;;;3.25;3.25;;;;;30.82;53.76;101408.63;5089252;27;51989;-46
2023/09/02 06:56:48;;;;;;;;;4.75;4.75;;;;;31.16;51.04;101406.22;5087052;27;68131;-47
2023/09/02 06:59:14;;;;;;;;;3.00;3.00;;;;;30.41;49.31;101411.13;5082694;27;45393;-45
2023/09/02 07:01:39;;;;;;;;;2.00;2.00;;;;;29.45;51.29;101406.44;5085842;27;45500;-46
2023/09/02 07:04:04;;;;;;;;;5.00;3.00;;;;;28.60;51.29;101408.31;5086211;27;52159;-46
2023/09/02 07:06:30;;;;;;;;;5.00;3.25;;;;;27.78;52.84;101412.25;5086469;27;66588;-48
2023/09/02 07:08:56;;;;;;;;;4.00;3.50;;;;;27.10;54.73;101408.94;5074156;27;45455;-46
2023/09/02 07:11:21;;;;;;;;;5.50;3.75;;;;;26.52;54.49;101400.69;5089378;27;45471;-47
2023/09/02 07:13:46;;;;;;;;;3.50;3.50;;;;;26.11;55.25;101419.63;5084156;27;46178;-46
2023/09/02 07:16:12;;;;;;;;;5.00;4.00;;;;;25.64;56.14;101423.63;5097419;27;45517;-45
2023/09/02 07:18:37;;;;;;;;;3.75;3.75;;;;;25.25;56.40;101423.00;5079032;27;45541;-46
2023/09/02 07:21:04;;;;;;;;;4.50;4.50;;;;;24.93;57.60;101416.25;5091139;27;60673;-48
2023/09/02 07:23:31;;;;;;;;;4.25;3.25;;;;;24.73;57.61;101425.59;5083197;27;45655;-46
2023/09/02 07:26:01;;;;;;;;;5.00;5.00;;;;;24.50;58.04;101436.03;5091221;27;45664;-47
2023/09/02 07:28:27;;;;;;;;;5.00;4.75;;;;;24.25;59.18;101436.59;5073663;27;45405;-47
2023/09/02 07:30:52;;;;;;;;;6.50;4.25;;;;;24.06;59.55;101432.09;5094317;27;45752;-50
2023/09/02 07:33:17;;;;;;;;;4.00;4.00;;;;;24.03;60.27;101435.13;5078986;27;51000;-46
2023/09/02 07:35:43;;;;;;;;;4.00;4.00;;;;;24.13;60.34;101434.22;5087829;27;68718;-48
2023/09/02 07:38:08;;;;;;;;;3.00;3.00;;;;;25.19;60.29;101425.50;5089138;27;54585;-49
2023/09/02 07:40:33;;;;;;;;;4.00;4.00;;;;;25.84;57.79;101446.03;5086760;27;65431;-47
2023/09/02 07:43:00;;;;;;;;;3.25;3.25;;;;;26.17;57.45;101468.88;5064944;27;69733;-49
2023/09/02 07:45:25;;;;;;;;;4.75;4.75;;;;;26.58;57.01;101500.91;5077755;27;45625;-49
2023/09/02 07:47:50;;;;;;;;;3.25;3.25;;;;;26.83;55.54;101504.59;5093254;27;61744;-46
2023/09/02 07:50:16;;;;;;;;;6.25;4.50;;;;;26.56;55.40;101495.63;5092441;27;45531;-47
2023/09/02 07:52:41;;;;;;;;;6.00;6.00;;;;;26.11;55.47;101477.72;5080045;27;46839;-48
2023/09/02 07:55:07;;;;;;;;;8.75;5.75;;;;;25.67;55.98;101477.75;5085452;27;45662;-47
2023/09/02 07:57:32;;;;;;;;;6.00;5.75;;;;;25.34;56.42;101481.06;5080097;27;45941;-49
2023/09/02 07:59:59;;;;;;;;;7.25;7.25;;;;;25.12;56.75;101501.44;5090032;27;64570;-50
2023/09/02 08:02:24;;;;;;;;;5.00;5.00;;;;;25.07;57.91;101514.66;5091488;27;45761;-48
2023/09/02 08:04:50;;;;;;;;;6.75;5.25;;;;;25.09;57.77;101515.38;5088595;27;71840;-50
2023/09/02 08:07:15;;;;;;;;;6.75;5.25;;;;;25.04;58.03;101506.81;5086668;27;55747;-50
2023/09/02 08:09:40;;;;;;;;;7.25;7.25;;;;;24.92;58.07;101507.03;5078359;27;55514;-50
2023/09/02 08:12:06;;;;;;;;;7.25;6.25;;;;;24.73;58.58;101510.78;5069249;27;46264;-51
2023/09/02 08:14:31;;;;;;;;;7.00;6.25;;;;;24.56;59.54;101517.84;5083324;27;45455;-49
2023/09/02 08:16:57;;;;;;;;;8.00;5.25;;;;;24.46;59.26;101517.03;5055739;27;45562;-48
2023/09/02 08:19:22;;;;;;;;;7.75;7.75;;;;;24.39;60.21;101505.03;5083278;27;68504;-50
2023/09/02 08:21:48;;;;;;;;;11.25;6.00;;;;;24.23;60.22;101508.41;5084393;27;47561;-49
2023/09/02 08:24:13;;;;;;;;;5.00;5.00;;;;;24.18;59.90;101511.56;5069051;27;45717;-51
2023/09/02 08:26:40;;;;;;;;;6.75;5.00;;;;;24.28;60.28;101508.81;5063579;27;46204;-50
2023/09/02 08:29:06;;;;;;;;;4.25;4.25;;;;;24.47;60.78;101518.75;5089550;27;45409;-48
2023/09/02 08:31:32;;;;;;;;;6.00;5.50;;;;;24.76;59.79;101510.44;5054103;27;47065;-47
2023/09/02 08:33:57;;;;;;;;;9.25;7.50;;;;;25.01;59.67;101494.38;5087684;27;45440;-49
2023/09/02 08:36:22;;;;;;;;;5.50;5.25;;;;;25.18;58.90;101491.84;5083395;27;67595;-48
2023/09/02 08:38:48;;;;;;;;;4.75;4.25;;;;;25.25;58.73;101485.59;5097212;27;45473;-48
2023/09/02 08:41:24;;;;;;;;;5.25;5.25;;;;;25.17;57.83;101476.50;5089892;27;47318;-47
2023/09/02 08:43:53;;;;;;;;;5.00;5.00;;;;;24.92;57.93;101460.78;5088917;27;45575;-46
2023/09/02 08:46:19;;;;;;;;;9.50;6.25;;;;;24.72;58.83;101457.38;5087916;27;45646;-46
2023/09/02 08:48:45;;;;;;;;;5.00;5.00;;;;;24.47;58.61;101460.78;5091416;27;46060;-46
2023/09/02 08:51:11;;;;;;;;;5.50;5.00;;;;;24.27;59.59;101471.78;5092103;27;61988;-46
2023/09/02 08:53:38;;;;;;;;;4.00;4.00;;;;;24.99;60.81;101466.50;5074801;27;45524;-46
2023/09/02 08:56:04;;;;;;;;;9.00;5.25;;;;;28.01;57.05;101461.56;5095129;27;45946;-44
2023/09/02 08:58:30;;;;;;;;;4.50;4.50;;;;;31.26;50.29;101455.31;5080145;27;45582;-49
2023/09/02 09:00:55;;;;;;;;;6.00;6.00;;;;;34.06;44.98;101457.19;5074889;28;46698;-50
2023/09/02 09:03:21;;;;;;;;;4.75;4.75;;;;;36.42;43.48;101459.81;5083012;27;45553;-45
2023/09/02 09:05:48;;;;;;;;;4.00;4.00;;;;;38.43;40.78;101450.75;5050867;27;61752;-46
2023/09/02 09:08:15;;;;;;;;;4.50;4.25;;;;;40.25;35.97;101441.38;5067244;28;67654;-46
2023/09/02 09:10:41;;;;;;;;;3.00;3.00;;;;;41.66;33.12;101457.16;5073688;28;47108;-47
2023/09/02 09:13:09;;;;;;;;;4.00;2.80;;;;;42.60;30.69;101448.84;5082948;27;69975;-45
2023/09/02 09:15:36;;;;;;;;;4.50;3.00;;;;;43.21;29.07;101451.94;5074072;28;45490;-47
2023/09/02 09:18:03;;;;;;;;;4.50;3.00;;;;;43.22;28.63;101448.03;5079147;28;45440;-49
2023/09/02 09:20:28;;;;;;;;;2.25;2.25;;;;;43.60;26.82;101448.56;5095672;27;46980;-46
2023/09/02 09:22:54;;;;;;;;;1.00;1.00;;;;;44.39;26.29;101439.53;5103442;27;45560;-46
2023/09/02 09:25:20;;;;;;;;;1.00;1.00;;;;;45.12;26.42;101449.09;5066994;27;69111;-45
2023/09/02 09:27:45;;;;;;;;;1.00;1.00;;;;;45.62;22.82;101454.50;5096586;27;45455;-49
2023/09/02 09:30:29;;;;;;;;;2.50;1.50;;;;;45.99;24.33;101450.09;5077675;27;72596;-47
2023/09/02 09:33:00;;;;;;;;;2.00;2.00;;;;;46.32;23.25;101452.19;5074821;28;45220;-48
2023/09/02 09:35:28;;;;;;;;;4.00;4.00;;;;;46.56;23.68;101452.94;5065710;27;45398;-46
2023/09/02 09:37:55;;;;;;;;;2.25;2.00;;;;;46.72;22.20;101453.53;5063619;28;45378;-46
2023/09/02 09:40:34;;;;;;;;;1.75;1.75;;;;;46.94;22.10;101459.66;5063912;28;45384;-46
2023/09/02 09:43:00;;;;;;;;;2.20;2.20;;;;;47.24;21.07;101465.88;5080235;28;45533;-46
2023/09/02 09:45:26;;;;;;;;;3.20;2.20;;;;;47.52;21.18;101475.22;5071863;27;45520;-46
2023/09/02 09:47:52;;;;;;;;;1.75;1.75;;;;;47.82;20.85;101487.88;5065913;28;45719;-46
2023/09/02 09:50:18;;;;;;;;;1.50;1.50;;;;;48.15;20.00;101492.53;5079533;27;49215;-47
2023/09/02 09:53:01;;;;;;;;;1.75;1.75;;;;;47.07;19.58;101498.28;5074819;27;45366;-48
2023/09/02 09:55:28;;;;;;;;;2.60;2.60;;;;;45.65;21.65;101506.41;5073171;28;45399;-47
2023/09/02 09:57:57;;;;;;;;;5.75;2.25;;;;;46.10;21.66;101492.94;5060512;28;45450;-47
2023/09/02 10:00:23;;;;;;;;;1.40;1.40;;;;;46.94;21.43;101490.59;5059994;28;46933;-48
2023/09/02 10:02:51;;;;;;;;;3.60;2.40;;;;;47.42;21.11;101487.53;5072273;27;45583;-50
2023/09/02 10:05:25;;;;;;;;;1.40;1.40;;;;;47.85;19.64;101500.50;5059513;28;45409;-48
2023/09/02 10:08:17;;;;;;;;;2.75;1.75;;;;;48.35;19.94;101494.91;5079740;28;45741;-46
2023/09/02 10:10:42;;;;;;;;;1.00;1.00;;;;;48.62;19.05;101495.16;5058950;28;45532;-48
2023/09/02 10:13:08;;;;;;;;;1.00;1.00;;;;;48.65;20.16;101480.44;5058521;28;70451;-48
2023/09/02 10:15:33;;;;;;;;;1.25;1.25;;;;;48.49;18.59;101479.91;5058190;28;65039;-46
2023/09/02 10:18:03;;;;;;;;;1.00;1.00;;;;;48.15;18.81;101482.09;5069986;28;69233;-47
2023/09/02 10:20:30;;;;;;;;;1.00;1.00;;;;;48.18;19.59;101470.22;5077415;28;45440;-48
2023/09/02 10:23:07;;;;;;;;;2.00;2.00;;;;;48.26;18.35;101476.25;5073668;27;45620;-47
2023/09/02 10:25:40;;;;;;;;;0.00;0.00;;;;;48.07;18.15;101476.38;5071899;27;45423;-49
2023/09/02 10:28:11;;;;;;;;;2.00;1.75;;;;;47.45;19.97;101472.84;5078384;27;45471;-46
2023/09/02 10:30:51;;;;;;;;;1.50;1.50;;;;;47.58;19.74;101481.59;5081191;27;46299;-47
2023/09/02 10:33:27;;;;;;;;;3.80;1.60;;;;;47.05;19.71;101480.88;5100140;27;45468;-50
2023/09/02 10:36:00;;;;;;;;;1.00;1.00;;;;;46.46;20.26;101484.03;5065513;27;45651;-45
2023/09/02 10:38:28;;;;;;;;;1.00;1.00;;;;;45.51;19.73;101481.00;5099717;27;45509;-48
2023/09/02 10:41:02;;;;;;;;;0.25;0.25;;;;;43.94;21.60;101481.50;5099877;27;46152;-48
2023/09/02 10:43:28;;;;;;;;;0.75;0.75;;;;;42.84;22.67;101479.06;5094717;27;45436;-51
2023/09/02 10:45:53;;;;;;;;;0.00;0.00;;;;;43.18;22.25;101478.53;5081604;27;45393;-50
2023/09/02 10:48:19;;;;;;;;;1.00;1.00;;;;;43.71;22.50;101478.19;5099934;27;45524;-49
2023/09/02 10:50:44;;;;;;;;;0.50;0.50;;;;;44.11;22.27;101481.16;5098407;27;76121;-48
2023/09/02 10:53:10;;;;;;;;;0.00;0.00;;;;;44.44;21.13;101478.75;5094166;27;62700;-48
2023/09/02 10:55:59;;;;;;;;;2.25;1.00;;;;;44.65;21.98;101471.03;5099427;27;45869;-49
2023/09/02 10:58:25;;;;;;;;;0.00;0.00;;;;;44.73;20.64;101478.00;5099032;27;45457;-47
2023/09/02 11:00:52;;;;;;;;;0.25;0.25;;;;;44.69;21.43;101476.88;5080069;27;46068;-49
2023/09/02 11:03:44;;;;;;;;;0.00;0.00;;;;;44.49;21.32;101475.91;5086444;27;45423;-45
2023/09/02 11:06:12;;;;;;;;;0.40;0.40;;;;;44.21;20.82;101483.91;5096714;27;45422;-50
2023/09/02 11:08:42;;;;;;;;;0.50;0.50;;;;;43.88;21.45;101488.22;5089419;27;45333;-47
2023/09/02 11:11:07;;;;;;;;;1.00;1.00;;;;;43.39;22.14;101475.72;5099672;27;46164;-48
2023/09/02 11:13:32;;;;;;;;;0.25;0.25;;;;;43.05;21.72;101476.28;5092638;27;68792;-45
2023/09/02 11:16:24;;;;;;;;;0.50;0.50;;;;;42.87;22.03;101478.53;5098532;27;68083;-45
2023/09/02 11:18:49;;;;;;;;;0.00;0.00;;;;;42.67;22.68;101475.72;5080232;27;67878;-47
2023/09/02 11:21:40;;;;;;;;;1.00;1.00;;;;;42.15;22.41;101481.09;5085480;27;61232;-49